Terminal Aerodrome Forecast
Issued by NWS

Home | Current Version | Previous Version | Text Only | Print | Product List | Glossary On
Versions: 1 2 3 4 5 6 7 8 9 10 11 12 13 14 15 16 17 18 19 20 21 22 23 24
000
FTUS43 KDLH 212300 RRA
TAFHYR
TAF
KHYR 212347Z 2200/2224 18008KT P6SM SCT030
     FM220700 VRB06KT P6SM -RA VCTS SCT015 BKN040CB
      TEMPO 2208/2212 VRB40KT 2SM TSRA OVC015CB
     FM221200 25006KT 5SM BR VCSH SCT005 OVC014
     FM221600 28010KT P6SM BKN015=

USA.gov is the U.S. government's official web portal to all federal, state and local government web resources and services.